Calgary, Alberta

2:31 AM MDT on August 30, 2014 (GMT -0600)
Calgary International | Change Station
CLOSE
Current Station
Airport
Location: Calgary,
Elevation: 3556 ft
Nearby Weather Stations

Elev 3556 ft 51.11 °N, 114.02 °W | Updated 31 minutes ago

Partly Cloudy
Partly Cloudy
55 °F
Feels Like 55 °F
N
9
Wind Variable Wind from NNW
Gusts 17 mph

Today is forecast to be nearly the same temperature as yesterday.

Today
High -- | Low -- °F
--% Chance of Precip.
Yesterday
High -- | Low -- °F
Precip. -- in
6:46 AM 8:25 PM
Waxing Crescent, 20% visible
Pressure 29.71 in
Visibility 15.0 miles
Clouds Few 12000 ft
Few 22000 ft
Dew Point 41 °F
Humidity 58%
Rainfall 0.00 in
Snow Depth Not available.
UV 0 out of 12
Pollen Not available.
Air Quality Not available.
Flu Activity Not available.
METAR CYYC 300800Z 34008G15KT 15SM FEW120 FEW220 13/05 A2970 RMK AC1CI1 AC TR CI TR SLP060 DENSITY ALT 4400FT

More Conditions Fewer Conditions

Pressure 29.71 in
Visibility 15.0 miles
Clouds Few 12000 ft
Few 22000 ft
Dew Point 41 °F
Humidity 58%
Rainfall 0.00 in
Snow Depth Not available.
UV 0 out of 12
Pollen Not available.
Air Quality Not available.
Flu Activity Not available.
METAR CYYC 300800Z 34008G15KT 15SM FEW120 FEW220 13/05 A2970 RMK AC1CI1 AC TR CI TR SLP060 DENSITY ALT 4400FT

More Conditions Fewer Conditions

10-Day Weather Forecast

Almanac

Astronomy

Aug. 30, 2014 Rise Set
Actual Time 6:46 AM MDT 8:25 PM MDT
Civil Twilight 6:11 AM MDT 9:00 PM MDT
Nautical Twilight 5:28 AM MDT 9:43 PM MDT
Astronomical Twilight 4:41 AM MDT 10:30 PM MDT
Moon 12:14 PM MDT 10:24 PM MDT
Length of Visible Light 14h 48m
Length of Day
13h 39m
Tomorrow will be 3m 46s shorter.
Waxing Crescent, 20% of the Moon is Illuminated
Today
Waxing Crescent
Sep 2
First Quarter
Sep 8
Full
Sep 15
Last Quarter
Sep 24
New

Yesterday's Extremes

Country Highs Country Lows

Community

WunderPhotos

Upload Photos

1,748,472 photos uploaded!

Nearby

Snow Depth

Not available.

Earthquake Activity

City Distance Mag. Time & Date
No recent earthquake activity has been reported nearby.
Minimum magnitude displayed is 2.5.

Coastal Water Temperatures

Place Temperature
No Stations Reporting

Nearby Weather Stations